Time;durP1;ratioP1;P1;durP2;ratioP2;P2;SDS_P1;SDS_P2;PMS_P1;PMS_P2;Temp;Humidity;BMP_temperature;BMP_pressure;BME280_temperature;BME280_humidity;BME280_pressure;Samples;Min_cycle;Max_cycle;Signal;HPM_P1;HPM_P2
2022/07/19 00:02:23;;;;;;;1999.90;999.90;;;24.80;24.80;;;;;;4994447;28;20198;-68
2022/07/19 00:04:49;;;;;;;1999.90;999.90;;;24.70;25.50;;;;;;4994208;28;20173;-68
2022/07/19 00:07:14;;;;;;;1999.90;999.90;;;24.80;26.50;;;;;;4994015;28;20205;-68
2022/07/19 00:09:40;;;;;;;1999.90;999.90;;;24.70;26.60;;;;;;4994349;28;20184;-68
2022/07/19 00:12:06;;;;;;;1999.90;999.90;;;24.60;27.40;;;;;;4994393;28;20198;-68
2022/07/19 00:14:31;;;;;;;1999.90;999.90;;;24.60;27.80;;;;;;4994341;28;20623;-68
2022/07/19 00:16:58;;;;;;;1999.90;999.90;;;24.50;28.30;;;;;;4994118;28;20825;-68
2022/07/19 00:19:23;;;;;;;1999.90;999.90;;;24.50;28.70;;;;;;4994276;28;20777;-68
2022/07/19 00:21:49;;;;;;;1999.90;999.90;;;24.40;29.00;;;;;;4994185;28;20433;-68
2022/07/19 00:24:15;;;;;;;1999.90;999.90;;;24.40;29.50;;;;;;4994169;28;20176;-68
2022/07/19 00:26:40;;;;;;;1999.90;999.90;;;24.40;29.70;;;;;;4993917;28;20212;-69
2022/07/19 00:29:07;;;;;;;1999.90;999.90;;;24.30;30.70;;;;;;4994031;28;20685;-68
2022/07/19 00:31:32;;;;;;;1999.90;999.90;;;24.30;31.20;;;;;;4993779;28;20209;-68
2022/07/19 00:33:58;;;;;;;1999.90;999.90;;;24.20;32.10;;;;;;4994008;28;20418;-68
2022/07/19 00:36:23;;;;;;;1999.90;999.90;;;24.10;32.50;;;;;;4993681;28;20174;-68
2022/07/19 00:38:49;;;;;;;1999.90;999.90;;;24.00;34.10;;;;;;4993906;28;20647;-68
2022/07/19 00:41:15;;;;;;;1999.90;999.90;;;23.90;35.50;;;;;;4993814;28;20200;-68
2022/07/19 00:43:42;;;;;;;1999.90;999.90;;;23.80;36.60;;;;;;4995037;28;20170;-68
2022/07/19 00:46:19;;;;;;;1999.90;999.90;;;23.70;37.90;;;;;;4994219;28;20178;-69
2022/07/19 00:48:46;;;;;;;1999.90;999.90;;;23.70;38.70;;;;;;4994149;28;20942;-69
2022/07/19 00:51:13;;;;;;;1999.90;999.90;;;23.60;39.40;;;;;;4994212;28;20460;-69
2022/07/19 00:53:41;;;;;;;1999.90;999.90;;;23.60;40.30;;;;;;4994245;28;20409;-69
2022/07/19 00:56:08;;;;;;;1999.90;999.90;;;23.50;40.90;;;;;;4993905;28;20379;-69
2022/07/19 00:58:36;;;;;;;1999.90;999.90;;;23.50;42.30;;;;;;4994446;28;20448;-69
2022/07/19 01:01:03;;;;;;;1999.90;999.90;;;23.40;43.40;;;;;;4994218;28;20425;-69
2022/07/19 01:03:29;;;;;;;1999.90;999.90;;;23.30;44.80;;;;;;4994020;28;21065;-69
2022/07/19 01:05:55;;;;;;;1999.90;999.90;;;23.30;46.20;;;;;;4993925;28;20399;-69
2022/07/19 01:08:20;;;;;;;1999.90;999.90;;;23.30;47.40;;;;;;4993837;28;20456;-69
2022/07/19 01:10:46;;;;;;;1999.90;999.90;;;23.20;48.60;;;;;;4993748;28;20189;-69
2022/07/19 01:13:15;;;;;;;1999.90;999.90;;;23.10;50.50;;;;;;4993955;28;20169;-69
2022/07/19 01:15:42;;;;;;;1999.90;999.90;;;23.00;51.30;;;;;;4993936;28;20169;-69
2022/07/19 01:18:09;;;;;;;1999.90;999.90;;;22.90;53.00;;;;;;4992373;28;20800;-69
2022/07/19 01:20:34;;;;;;;1999.90;999.90;;;22.90;54.00;;;;;;4994164;28;20407;-69
2022/07/19 01:23:00;;;;;;;1999.90;999.90;;;22.80;55.60;;;;;;4994514;28;20399;-68
2022/07/19 01:25:34;;;;;;;1999.90;999.90;;;22.70;57.20;;;;;;4996404;28;20185;-68
2022/07/19 01:28:00;;;;;;;1999.90;999.90;;;22.70;58.90;;;;;;4996417;28;20609;-68
2022/07/19 01:30:26;;;;;;;1999.90;999.90;;;22.70;60.90;;;;;;4997003;28;20788;-68
2022/07/19 01:32:53;;;;;;;1999.90;999.90;;;22.70;63.20;;;;;;4996630;28;20401;-68
2022/07/19 01:35:19;;;;;;;1999.90;999.90;;;22.60;64.40;;;;;;4996785;28;20492;-69
2022/07/19 01:37:45;;;;;;;1999.90;999.90;;;22.50;66.60;;;;;;4996815;28;20444;-68
2022/07/19 01:40:13;;;;;;;1999.90;999.90;;;22.50;69.00;;;;;;4995915;28;20928;-68
2022/07/19 01:42:40;;;;;;;1999.90;999.90;;;22.40;71.50;;;;;;4996458;28;20181;-68
2022/07/19 01:45:07;;;;;;;1999.90;999.90;;;22.40;72.70;;;;;;4996448;28;20462;-68
2022/07/19 01:47:32;;;;;;;1999.90;999.90;;;22.30;73.40;;;;;;4995281;28;20432;-68
2022/07/19 01:49:58;;;;;;;1999.90;999.90;;;22.30;77.80;;;;;;4995517;28;20920;-68
2022/07/19 01:52:24;;;;;;;1999.90;999.90;;;22.20;79.90;;;;;;4995190;28;20197;-68
2022/07/19 01:54:49;;;;;;;1999.90;999.90;;;22.20;82.30;;;;;;4995102;28;20192;-68
2022/07/19 01:57:15;;;;;;;1999.90;999.90;;;22.20;84.60;;;;;;4994986;28;20654;-68
2022/07/19 01:59:41;;;;;;;1999.90;999.90;;;22.10;86.20;;;;;;4995427;28;20198;-68
2022/07/19 02:02:07;;;;;;;1999.90;999.90;;;22.10;87.70;;;;;;4995034;28;20208;-68
2022/07/19 02:04:32;;;;;;;1999.90;999.90;;;22.10;89.80;;;;;;4994490;28;20955;-68
2022/07/19 02:06:58;;;;;;;1999.90;999.90;;;22.00;90.70;;;;;;4994254;28;20188;-68
2022/07/19 02:09:24;;;;;;;1999.90;999.90;;;21.90;91.80;;;;;;4994881;28;20181;-68
2022/07/19 02:11:50;;;;;;;1999.90;999.90;;;21.90;92.40;;;;;;4994843;28;20280;-68
2022/07/19 02:14:16;;;;;;;1999.90;999.90;;;21.80;92.30;;;;;;4995287;28;20764;-68
2022/07/19 02:16:42;;;;;;;1999.90;999.90;;;21.60;93.50;;;;;;4994643;28;20511;-68
2022/07/19 02:19:08;;;;;;;1999.90;999.90;;;21.50;95.20;;;;;;4995272;28;20555;-68
2022/07/19 02:21:34;;;;;;;1999.90;999.90;;;21.50;96.80;;;;;;4994578;28;20440;-68
2022/07/19 02:24:01;;;;;;;1999.90;999.90;;;21.50;97.70;;;;;;4993504;28;20734;-68
2022/07/19 02:26:27;;;;;;;1999.90;999.90;;;21.50;98.80;;;;;;4993140;28;20399;-69
2022/07/19 02:28:53;;;;;;;1999.90;999.90;;;21.50;99.60;;;;;;4994521;28;20430;-69
2022/07/19 02:31:19;;;;;;;1999.90;999.90;;;21.50;99.90;;;;;;4997206;28;20239;-69
2022/07/19 02:33:44;;;;;;;1999.90;999.90;;;21.60;99.90;;;;;;4997102;28;20561;-69
2022/07/19 02:36:10;;;;;;;1999.90;999.90;;;21.60;99.90;;;;;;4996906;28;20410;-68
2022/07/19 02:38:36;;;;;;;1999.90;999.90;;;21.70;99.90;;;;;;4996909;28;20220;-69
2022/07/19 02:41:01;;;;;;;1999.90;999.90;;;21.60;99.90;;;;;;4996353;28;20611;-68
2022/07/19 02:43:27;;;;;;;1999.90;999.90;;;21.60;99.90;;;;;;4997228;28;20692;-68
2022/07/19 02:45:53;;;;;;;1999.90;999.90;;;21.60;99.90;;;;;;4997018;28;20177;-69
2022/07/19 02:48:19;;;;;;;1999.90;999.90;;;21.50;99.90;;;;;;4996775;28;20227;-69
2022/07/19 02:50:45;;;;;;;1999.90;999.90;;;21.50;99.90;;;;;;4996941;28;20986;-69
2022/07/19 02:53:10;;;;;;;1999.90;999.90;;;21.50;99.90;;;;;;4997017;28;20544;-69
2022/07/19 02:55:36;;;;;;;1999.90;999.90;;;21.40;99.90;;;;;;4996575;28;20411;-69
2022/07/19 02:58:03;;;;;;;1999.90;999.90;;;21.40;99.90;;;;;;4996467;28;20176;-68
2022/07/19 03:00:29;;;;;;;1999.90;999.90;;;21.40;99.90;;;;;;4996622;28;20262;-68
2022/07/19 03:02:55;;;;;;;1999.90;999.90;;;21.40;99.90;;;;;;4996677;28;20415;-68
2022/07/19 03:05:20;;;;;;;1999.90;999.90;;;21.40;99.90;;;;;;4996500;28;20381;-68
2022/07/19 03:07:46;;;;;;;1999.90;999.90;;;21.30;99.90;;;;;;4995952;28;20232;-68
2022/07/19 03:10:12;;;;;;;1999.90;999.90;;;21.10;99.90;;;;;;4996626;28;20246;-68
2022/07/19 03:12:37;;;;;;;1999.90;999.90;;;21.00;99.90;;;;;;4997164;28;20173;-68
2022/07/19 03:15:03;;;;;;;1999.90;999.90;;;21.00;99.90;;;;;;4997161;28;20177;-68
2022/07/19 03:17:29;;;;;;;1999.90;999.90;;;21.00;99.90;;;;;;4997148;28;20186;-68
2022/07/19 03:19:54;;;;;;;1999.90;999.90;;;21.00;99.90;;;;;;4996999;28;20468;-68
2022/07/19 03:22:20;;;;;;;1999.90;999.90;;;21.00;99.90;;;;;;4997258;28;20563;-68
2022/07/19 03:24:46;;;;;;;1999.90;999.90;;;20.90;99.90;;;;;;4997842;28;20268;-68
2022/07/19 03:27:11;;;;;;;1999.90;999.90;;;20.90;99.90;;;;;;4997057;28;20187;-68
2022/07/19 03:29:37;;;;;;;1999.90;999.90;;;20.90;99.90;;;;;;4996030;28;20176;-68
2022/07/19 03:32:03;;;;;;;1999.90;999.90;;;20.90;99.90;;;;;;4994979;28;20211;-68
2022/07/19 03:34:28;;;;;;;1999.90;999.90;;;20.90;99.90;;;;;;4995187;28;20168;-68
2022/07/19 03:36:55;;;;;;;1999.90;999.90;;;20.90;99.90;;;;;;4994819;28;20176;-68
2022/07/19 03:39:20;;;;;;;1999.90;999.90;;;20.80;99.90;;;;;;4994876;28;20181;-68
2022/07/19 03:41:46;;;;;;;1999.90;999.90;;;20.80;99.90;;;;;;4994159;28;21117;-68
2022/07/19 03:44:12;;;;;;;1999.90;999.90;;;20.90;99.90;;;;;;4994983;28;20397;-68
2022/07/19 03:46:38;;;;;;;1999.90;999.90;;;20.90;99.90;;;;;;4994637;28;20265;-68
2022/07/19 03:49:04;;;;;;;1999.90;999.90;;;20.90;99.90;;;;;;4994729;28;20960;-68
2022/07/19 03:51:29;;;;;;;1999.90;999.90;;;20.90;99.90;;;;;;4994771;28;20670;-68
2022/07/19 03:53:55;;;;;;;1999.90;999.90;;;20.90;99.90;;;;;;4995096;28;20166;-68
2022/07/19 03:56:20;;;;;;;1999.90;999.90;;;21.00;99.90;;;;;;4995031;28;20260;-68
2022/07/19 03:58:48;;;;;;;1999.90;999.90;;;20.90;99.90;;;;;;4995532;28;20546;-69
2022/07/19 04:01:14;;;;;;;1999.90;999.90;;;21.00;99.90;;;;;;4995728;28;20191;-69
2022/07/19 04:03:40;;;;;;;1999.90;999.90;;;21.00;99.90;;;;;;4995418;28;20403;-69
2022/07/19 04:06:06;;;;;;;1999.90;999.90;;;21.00;99.90;;;;;;4995262;28;20407;-69
2022/07/19 04:08:32;;;;;;;1999.90;999.90;;;21.00;99.90;;;;;;4995556;28;20283;-69
2022/07/19 04:10:58;;;;;;;1999.90;999.90;;;21.00;99.90;;;;;;4996112;28;20493;-69
2022/07/19 04:13:24;;;;;;;1999.90;999.90;;;21.00;99.90;;;;;;4996245;28;20383;-69
2022/07/19 04:15:49;;;;;;;1999.90;999.90;;;21.00;99.90;;;;;;4995275;28;20166;-69
2022/07/19 04:18:15;;;;;;;1999.90;999.90;;;21.00;99.90;;;;;;4995101;28;20241;-69
2022/07/19 04:20:41;;;;;;;1999.90;999.90;;;21.00;99.90;;;;;;4995338;28;20193;-68
2022/07/19 04:23:06;;;;;;;1999.90;999.90;;;20.90;99.90;;;;;;4994781;28;20544;-68
2022/07/19 04:25:32;;;;;;;1999.90;999.90;;;20.80;99.90;;;;;;4995071;28;20258;-68
2022/07/19 04:27:58;;;;;;;1999.90;999.90;;;20.80;99.90;;;;;;4994511;28;20196;-68
2022/07/19 04:30:24;;;;;;;1999.90;999.90;;;20.80;99.90;;;;;;4993413;28;20297;-68
2022/07/19 04:32:49;;;;;;;1999.90;999.90;;;20.80;99.90;;;;;;4995737;28;20196;-69
2022/07/19 04:35:16;;;;;;;1999.90;999.90;;;20.80;99.90;;;;;;4995316;28;20231;-69
2022/07/19 04:37:42;;;;;;;1999.90;999.90;;;20.90;99.90;;;;;;4994813;28;20535;-69
2022/07/19 04:40:10;;;;;;;1999.90;999.90;;;20.90;99.90;;;;;;4994927;28;20775;-69
2022/07/19 04:42:35;;;;;;;1999.90;999.90;;;21.00;99.90;;;;;;4995710;28;20446;-69
2022/07/19 04:45:01;;;;;;;1999.90;999.90;;;21.10;99.90;;;;;;4995255;28;20422;-69
2022/07/19 04:47:27;;;;;;;1999.90;999.90;;;21.20;99.90;;;;;;4994638;28;20651;-69
2022/07/19 04:49:52;;;;;;;1999.90;999.90;;;21.30;99.90;;;;;;4994398;28;20408;-69
2022/07/19 04:52:18;;;;;;;1999.90;999.90;;;21.30;99.90;;;;;;4993726;28;20191;-69
2022/07/19 04:54:44;;;;;;;1999.90;999.90;;;21.40;99.90;;;;;;4994406;28;20173;-69
2022/07/19 04:57:09;;;;;;;1999.90;999.90;;;21.50;99.90;;;;;;4994432;28;20173;-69
2022/07/19 04:59:35;;;;;;;1999.90;999.90;;;21.50;99.90;;;;;;4994168;28;20173;-69
2022/07/19 05:02:01;;;;;;;1999.90;999.90;;;21.60;99.90;;;;;;4992968;28;20187;-69
2022/07/19 05:04:27;;;;;;;1999.90;999.90;;;21.70;99.90;;;;;;4993410;28;20228;-69
2022/07/19 05:06:56;;;;;;;1999.90;999.90;;;21.70;99.90;;;;;;4993142;28;20381;-68
2022/07/19 05:09:26;;;;;;;1999.90;999.90;;;21.70;99.90;;;;;;4993457;28;20713;-69
2022/07/19 05:11:53;;;;;;;1999.90;999.90;;;21.80;99.90;;;;;;4993344;28;20398;-69
2022/07/19 05:14:19;;;;;;;1999.90;999.90;;;21.90;99.90;;;;;;4993431;28;20473;-70
2022/07/19 05:16:45;;;;;;;1999.90;999.90;;;22.00;99.90;;;;;;4993024;28;20775;-70
2022/07/19 05:19:12;;;;;;;1999.90;999.90;;;22.00;99.90;;;;;;4993121;28;20393;-69
2022/07/19 05:21:37;;;;;;;1999.90;999.90;;;22.10;99.90;;;;;;4993155;28;20450;-69
2022/07/19 05:24:03;;;;;;;1999.90;999.90;;;22.10;99.90;;;;;;4993184;28;20418;-69
2022/07/19 05:26:30;;;;;;;1999.90;999.90;;;22.20;99.90;;;;;;4993092;28;20214;-69
2022/07/19 05:28:55;;;;;;;1999.90;999.90;;;22.20;99.90;;;;;;4993129;28;20431;-69
2022/07/19 05:31:21;;;;;;;1999.90;999.90;;;22.20;99.90;;;;;;5018158;23;20558;-71
2022/07/19 05:33:47;;;;;;;1999.90;999.90;;;22.30;99.90;;;;;;5032176;28;20172;-71
2022/07/19 05:36:12;;;;;;;1999.90;999.90;;;22.40;99.90;;;;;;5031972;28;20577;-71
2022/07/19 05:38:38;;;;;;;1999.90;999.90;;;22.50;99.90;;;;;;5032504;28;20176;-73
2022/07/19 05:41:05;;;;;;;1999.90;999.90;;;22.60;99.90;;;;;;5037452;28;20237;-73
2022/07/19 05:43:31;;;;;;;1999.90;999.90;;;22.70;99.90;;;;;;5052737;28;20908;-73
2022/07/19 05:45:56;;;;;;;1999.90;999.90;;;22.70;99.90;;;;;;5052677;28;20491;-73
2022/07/19 05:48:22;;;;;;;1999.90;999.90;;;22.90;99.90;;;;;;5052222;28;20281;-73
2022/07/19 05:50:48;;;;;;;1999.90;999.90;;;22.90;99.90;;;;;;5052223;28;20242;-73
2022/07/19 05:53:13;;;;;;;1999.90;999.90;;;23.00;99.90;;;;;;5052540;28;20679;-73
2022/07/19 05:55:39;;;;;;;1999.90;999.90;;;23.20;99.90;;;;;;5052117;28;20195;-73
2022/07/19 05:58:05;;;;;;;1999.90;999.90;;;23.30;99.90;;;;;;5052199;28;20170;-73
2022/07/19 06:00:30;;;;;;;1999.90;999.90;;;23.40;99.90;;;;;;5052305;28;20170;-73
2022/07/19 06:02:56;;;;;;;1999.90;999.90;;;23.60;99.90;;;;;;5051624;28;20209;-72
2022/07/19 06:05:21;;;;;;;1999.90;999.90;;;23.70;99.90;;;;;;5052249;28;20172;-73
2022/07/19 06:07:47;;;;;;;1999.90;999.90;;;23.80;99.90;;;;;;5051799;28;20203;-73
2022/07/19 06:10:13;;;;;;;1999.90;999.90;;;24.00;99.90;;;;;;5052073;28;20164;-73
2022/07/19 06:12:38;;;;;;;1999.90;999.90;;;24.10;99.90;;;;;;5052022;28;20192;-72
2022/07/19 06:15:04;;;;;;;1999.90;999.90;;;24.20;99.90;;;;;;5051941;28;20247;-73
2022/07/19 06:17:30;;;;;;;1999.90;999.90;;;24.30;99.90;;;;;;5051584;28;20179;-73
2022/07/19 06:19:56;;;;;;;1999.90;999.90;;;24.40;99.80;;;;;;5051946;28;21117;-73
2022/07/19 06:22:21;;;;;;;1999.90;999.90;;;24.40;99.20;;;;;;5051808;28;20210;-73
2022/07/19 06:24:47;;;;;;;1999.90;999.90;;;24.50;97.60;;;;;;5052043;28;20164;-72
2022/07/19 06:27:12;;;;;;;1999.90;999.90;;;24.70;96.90;;;;;;5052478;28;20171;-72
2022/07/19 06:29:38;;;;;;;1999.90;999.90;;;24.80;96.20;;;;;;5051885;28;20251;-73
2022/07/19 06:32:04;;;;;;;1999.90;999.90;;;24.90;95.10;;;;;;5051463;28;20211;-73
2022/07/19 06:34:29;;;;;;;1999.90;999.90;;;25.00;92.70;;;;;;5051802;28;20229;-73
2022/07/19 06:36:55;;;;;;;1999.90;999.90;;;25.10;92.60;;;;;;5051348;28;20168;-72
2022/07/19 06:39:21;;;;;;;1999.90;999.90;;;25.20;91.90;;;;;;5051480;28;20247;-72
2022/07/19 06:41:47;;;;;;;1999.90;999.90;;;25.30;91.70;;;;;;5051403;28;20762;-72
2022/07/19 06:44:13;;;;;;;1999.90;999.90;;;25.50;91.60;;;;;;5051623;28;20180;-72
2022/07/19 06:46:39;;;;;;;1999.90;999.90;;;25.60;89.50;;;;;;5051146;28;20921;-72
2022/07/19 06:49:04;;;;;;;1999.90;999.90;;;25.70;88.60;;;;;;5051405;28;20199;-72
2022/07/19 06:51:30;;;;;;;1999.90;999.90;;;25.70;87.20;;;;;;5051378;28;20627;-72
2022/07/19 06:53:55;;;;;;;1999.90;999.90;;;25.90;84.90;;;;;;5051444;28;20233;-72
2022/07/19 06:56:21;;;;;;;1999.90;999.90;;;25.90;85.90;;;;;;5051110;28;20648;-72
2022/07/19 06:58:47;;;;;;;1999.90;999.90;;;26.00;83.50;;;;;;5051391;28;20247;-73
2022/07/19 07:01:13;;;;;;;1999.90;999.90;;;26.10;82.60;;;;;;5051237;28;20219;-73
2022/07/19 07:03:39;;;;;;;1999.90;999.90;;;26.20;79.90;;;;;;5051288;28;20179;-73
2022/07/19 07:06:05;;;;;;;1999.90;999.90;;;26.30;80.90;;;;;;5050989;28;20467;-73
2022/07/19 07:08:30;;;;;;;1999.90;999.90;;;26.50;78.10;;;;;;5051204;28;20199;-72
2022/07/19 07:10:56;;;;;;;1999.90;999.90;;;26.60;76.20;;;;;;5051231;28;20184;-72
2022/07/19 07:13:21;;;;;;;1999.90;999.90;;;26.80;73.70;;;;;;5051323;28;20172;-73
2022/07/19 07:15:47;;;;;;;1999.90;999.90;;;26.90;73.50;;;;;;5052489;28;20167;-72
2022/07/19 07:18:13;;;;;;;1999.90;999.90;;;27.00;69.00;;;;;;5054569;28;20585;-72
2022/07/19 07:20:38;;;;;;;1999.90;999.90;;;27.20;68.40;;;;;;5054676;28;20171;-72
2022/07/19 07:23:04;;;;;;;1999.90;999.90;;;27.30;64.10;;;;;;5054853;28;20203;-72
2022/07/19 07:25:30;;;;;;;1999.90;999.90;;;27.50;63.30;;;;;;5054736;28;20190;-72
2022/07/19 07:27:55;;;;;;;1999.90;999.90;;;27.60;60.40;;;;;;5054261;28;20196;-73
2022/07/19 07:30:21;;;;;;;1999.90;999.90;;;27.80;57.50;;;;;;5054543;28;20167;-72
2022/07/19 07:32:47;;;;;;;1999.90;999.90;;;27.80;56.90;;;;;;5054400;28;20570;-72
2022/07/19 07:35:12;;;;;;;1999.90;999.90;;;28.00;56.20;;;;;;5054471;28;20176;-72
2022/07/19 07:37:38;;;;;;;1999.90;999.90;;;28.00;56.00;;;;;;5054141;28;20171;-72
2022/07/19 07:40:04;;;;;;;1999.90;999.90;;;28.10;56.50;;;;;;5054402;28;20168;-72
2022/07/19 07:42:32;;;;;;;1999.90;999.90;;;28.20;54.40;;;;;;5054285;28;20187;-72
2022/07/19 07:44:59;;;;;;;1999.90;999.90;;;28.30;55.20;;;;;;5054278;28;20477;-73
2022/07/19 07:47:25;;;;;;;1999.90;999.90;;;28.50;52.40;;;;;;5053787;28;20514;-72
2022/07/19 07:49:51;;;;;;;1999.90;999.90;;;28.60;52.00;;;;;;5054388;28;20493;-72
2022/07/19 07:52:17;;;;;;;1999.90;999.90;;;28.70;50.80;;;;;;5054058;28;20207;-72
2022/07/19 07:54:42;;;;;;;1999.90;999.90;;;28.80;49.00;;;;;;5054096;28;20230;-72
2022/07/19 07:57:08;;;;;;;1999.90;999.90;;;28.90;48.50;;;;;;5053769;28;20167;-72
2022/07/19 07:59:34;;;;;;;1999.90;999.90;;;29.00;47.80;;;;;;5053981;28;20164;-71
2022/07/19 08:02:00;;;;;;;1999.90;999.90;;;29.10;46.10;;;;;;5053902;28;20259;-72
2022/07/19 08:04:26;;;;;;;1999.90;999.90;;;29.20;44.90;;;;;;5053889;28;20406;-72
2022/07/19 08:06:52;;;;;;;1999.90;999.90;;;29.30;43.40;;;;;;5053961;28;20179;-72
2022/07/19 08:09:18;;;;;;;1999.90;999.90;;;29.40;42.20;;;;;;5053689;28;20930;-72
2022/07/19 08:11:43;;;;;;;1999.90;999.90;;;29.60;41.80;;;;;;5053646;28;20446;-72
2022/07/19 08:14:09;;;;;;;1999.90;999.90;;;29.70;40.30;;;;;;5053613;28;20168;-72
2022/07/19 08:16:35;;;;;;;1999.90;999.90;;;29.90;39.70;;;;;;5053461;28;20561;-72
2022/07/19 08:19:01;;;;;;;1999.90;999.90;;;30.00;39.20;;;;;;5053593;28;20174;-72
2022/07/19 08:21:26;;;;;;;1999.90;999.90;;;30.00;39.10;;;;;;5053721;28;20196;-72
2022/07/19 08:23:53;;;;;;;1999.90;999.90;;;30.10;38.20;;;;;;5053603;28;20197;-71
2022/07/19 08:26:19;;;;;;;1999.90;999.90;;;30.20;37.00;;;;;;5052607;28;20187;-72
2022/07/19 08:28:46;;;;;;;1999.90;999.90;;;30.30;37.60;;;;;;5053238;28;20452;-73
2022/07/19 08:31:12;;;;;;;1999.90;999.90;;;30.50;36.30;;;;;;5053116;28;20456;-73
2022/07/19 08:33:39;;;;;;;1999.90;999.90;;;30.60;34.80;;;;;;5053287;28;20430;-73
2022/07/19 08:36:05;;;;;;;1999.90;999.90;;;30.60;36.00;;;;;;5053137;28;20410;-73
2022/07/19 08:38:30;;;;;;;1999.90;999.90;;;30.70;36.00;;;;;;5053246;28;20402;-73
2022/07/19 08:40:56;;;;;;;1999.90;999.90;;;30.80;35.40;;;;;;5053060;28;20433;-73
2022/07/19 08:43:22;;;;;;;1999.90;999.90;;;31.00;34.70;;;;;;5053054;28;20255;-73
2022/07/19 08:45:49;;;;;;;1999.90;999.90;;;31.10;33.30;;;;;;5053041;28;20445;-73
2022/07/19 08:48:15;;;;;;;1999.90;999.90;;;31.20;33.30;;;;;;5052726;28;20235;-72
2022/07/19 08:50:41;;;;;;;1999.90;999.90;;;31.40;32.30;;;;;;5052871;28;20438;-72
2022/07/19 08:53:06;;;;;;;1999.90;999.90;;;31.50;31.00;;;;;;5052970;28;20177;-72
2022/07/19 08:55:32;;;;;;;1999.90;999.90;;;31.60;32.30;;;;;;5052864;28;20229;-72
2022/07/19 08:57:57;;;;;;;1999.90;999.90;;;31.80;30.80;;;;;;5052489;28;20167;-72
2022/07/19 09:00:28;;;;;;;1999.90;999.90;;;31.90;30.20;;;;;;5052785;28;20274;-72
2022/07/19 09:02:59;;;;;;;1999.90;999.90;;;32.10;28.30;;;;;;5052738;28;20219;-72
2022/07/19 09:05:26;;;;;;;1999.90;999.90;;;32.20;28.10;;;;;;5052773;28;20406;-72
2022/07/19 09:08:07;;;;;;;1999.90;999.90;;;32.20;27.00;;;;;;5052332;28;20454;-72
2022/07/19 09:10:34;;;;;;;1999.90;999.90;;;32.40;28.10;;;;;;5052440;28;20433;-72
2022/07/19 09:13:03;;;;;;;1999.90;999.90;;;32.60;27.70;;;;;;5052510;28;20406;-72
2022/07/19 09:15:47;;;;;;;1999.90;999.90;;;32.70;27.20;;;;;;5052583;28;20834;-72
2022/07/19 09:18:26;;;;;;;1999.90;999.90;;;32.80;26.00;;;;;;5052221;28;20410;-72
2022/07/19 09:20:54;;;;;;;1999.90;999.90;;;33.00;25.60;;;;;;5052438;28;20504;-72
2022/07/19 09:23:21;;;;;;;1999.90;999.90;;;33.20;25.40;;;;;;5052674;28;20752;-72
2022/07/19 09:25:53;;;;;;;1999.90;999.90;;;33.30;24.60;;;;;;5052406;28;20413;-72
2022/07/19 09:28:21;;;;;;;1999.90;999.90;;;33.40;24.20;;;;;;5052110;28;20488;-72
2022/07/19 09:30:52;;;;;;;1999.90;999.90;;;33.50;24.10;;;;;;5052081;28;20409;-72
2022/07/19 09:33:21;;;;;;;1999.90;999.90;;;33.60;23.30;;;;;;5052255;28;20406;-72
2022/07/19 09:35:51;;;;;;;1999.90;999.90;;;33.70;22.60;;;;;;5052177;28;20489;-72
2022/07/19 09:38:19;;;;;;;1999.90;999.90;;;33.80;22.00;;;;;;5051317;28;20957;-72
2022/07/19 09:40:46;;;;;;;1999.90;999.90;;;34.00;20.90;;;;;;5052088;28;20433;-72
2022/07/19 09:43:11;;;;;;;1999.90;999.90;;;34.10;20.40;;;;;;5052364;28;20517;-71
2022/07/19 09:45:37;;;;;;;1999.90;999.90;;;34.20;19.60;;;;;;5052043;28;20438;-72
2022/07/19 09:48:03;;;;;;;1999.90;999.90;;;34.30;19.60;;;;;;5052010;28;20715;-72
2022/07/19 09:50:30;;;;;;;1999.90;999.90;;;34.40;19.30;;;;;;5051996;28;20178;-72
2022/07/19 09:52:58;;;;;;;1999.90;999.90;;;34.60;19.20;;;;;;5052146;28;20485;-71
2022/07/19 09:55:25;;;;;;;1999.90;999.90;;;34.70;18.50;;;;;;5052223;28;20475;-71
2022/07/19 09:57:51;;;;;;;1999.90;999.90;;;34.90;17.10;;;;;;5051693;28;20410;-71
2022/07/19 10:00:19;;;;;;;1999.90;999.90;;;35.00;17.50;;;;;;5051974;28;20428;-71
2022/07/19 10:02:49;;;;;;;1999.90;999.90;;;35.10;15.00;;;;;;5051811;28;20915;-71
2022/07/19 10:05:15;;;;;;;1999.90;999.90;;;35.10;16.70;;;;;;5051924;28;20407;-71
2022/07/19 10:07:41;;;;;;;1999.90;999.90;;;35.20;16.60;;;;;;5051680;28;20507;-71
2022/07/19 10:10:11;;;;;;;1999.90;999.90;;;35.30;16.50;;;;;;5051868;28;20702;-71
2022/07/19 10:12:38;;;;;;;1999.90;999.90;;;35.50;16.00;;;;;;5051725;28;20421;-71
2022/07/19 10:15:06;;;;;;;1999.90;999.90;;;35.60;14.90;;;;;;5051805;28;20920;-71
2022/07/19 10:17:38;;;;;;;1999.90;999.90;;;35.70;15.10;;;;;;5051594;28;20468;-71
2022/07/19 10:20:06;;;;;;;1999.90;999.90;;;35.90;13.70;;;;;;5051777;28;21145;-71
2022/07/19 10:22:33;;;;;;;1999.90;999.90;;;36.10;13.90;;;;;;5051543;28;20453;-71
2022/07/19 10:25:09;;;;;;;1999.90;999.90;;;36.20;12.50;;;;;;5048728;28;20417;-71
2022/07/19 10:27:40;;;;;;;1999.90;999.90;;;36.20;11.30;;;;;;5050810;28;20418;-71
2022/07/19 10:30:12;;;;;;;1999.90;999.90;;;36.40;10.60;;;;;;5051510;28;20410;-71
2022/07/19 10:32:46;;;;;;;1999.90;999.90;;;36.40;10.10;;;;;;5050508;28;20446;-71
2022/07/19 10:35:18;;;;;;;1999.90;999.90;;;36.50;9.30;;;;;;5051214;28;20413;-71
2022/07/19 10:37:55;;;;;;;1999.90;999.90;;;36.50;9.00;;;;;;5051023;28;20406;-71
2022/07/19 10:40:44;;;;;;;1999.90;999.90;;;36.50;8.70;;;;;;5050681;28;20409;-71
2022/07/19 10:43:15;;;;;;;1999.90;999.90;;;36.60;9.20;;;;;;5051346;28;20414;-71
2022/07/19 10:45:42;;;;;;;1999.90;999.90;;;36.80;8.60;;;;;;5051087;28;20410;-71
2022/07/19 10:48:14;;;;;;;1999.90;999.90;;;36.90;8.10;;;;;;5050123;28;20453;-71
2022/07/19 10:50:50;;;;;;;1999.90;999.90;;;37.10;5.20;;;;;;5053652;28;20406;-71
2022/07/19 10:53:40;;;;;;;1999.90;999.90;;;37.10;6.00;;;;;;5055018;28;20406;-71
2022/07/19 10:56:16;;;;;;;1999.90;999.90;;;37.20;5.80;;;;;;5054046;28;20409;-71
2022/07/19 10:59:24;;;;;;;1999.90;999.90;;;37.40;5.00;;;;;;5054802;28;20404;-71
2022/07/19 11:01:56;;;;;;;1999.90;999.90;;;37.40;5.00;;;;;;5052186;28;20451;-71
2022/07/19 11:04:28;;;;;;;1999.90;999.90;;;37.60;5.20;;;;;;5054906;28;20786;-71
2022/07/19 11:07:14;;;;;;;1999.90;999.90;;;37.80;3.60;;;;;;5054337;28;20409;-71
2022/07/19 11:09:50;;;;;;;1999.90;999.90;;;37.80;2.90;;;;;;5054477;28;20803;-71
2022/07/19 11:12:25;;;;;;;1999.90;999.90;;;37.70;2.80;;;;;;5054493;28;20424;-71
2022/07/19 11:14:52;;;;;;;1999.90;999.90;;;37.70;3.30;;;;;;5054418;28;20406;-72
2022/07/19 11:17:17;;;;;;;1999.90;999.90;;;37.80;2.80;;;;;;5053712;28;20413;-72
2022/07/19 11:20:10;;;;;;;1999.90;999.90;;;37.90;2.60;;;;;;5054358;28;20402;-71
2022/07/19 11:22:44;;;;;;;1999.90;999.90;;;38.10;2.70;;;;;;5054119;28;20207;-72
2022/07/19 11:25:12;;;;;;;1999.90;999.90;;;38.30;1.30;;;;;;5053869;28;20409;-71
2022/07/19 11:27:47;;;;;;;1999.90;999.90;;;38.40;1.10;;;;;;5053880;28;20394;-71
2022/07/19 11:30:14;;;;;;;1999.90;999.90;;;38.50;1.10;;;;;;5054241;28;20883;-71
2022/07/19 11:32:44;;;;;;;1999.90;999.90;;;38.60;1.00;;;;;;5054117;28;20535;-71
2022/07/19 11:35:12;;;;;;;1999.90;999.90;;;38.70;1.00;;;;;;5054372;28;20402;-71
2022/07/19 11:37:39;;;;;;;1999.90;999.90;;;38.80;1.00;;;;;;5054009;28;20398;-71
2022/07/19 11:40:08;;;;;;;1999.90;999.90;;;38.90;1.00;;;;;;5053944;28;20493;-71
2022/07/19 11:42:46;;;;;;;1999.90;999.90;;;38.90;1.00;;;;;;5053866;28;20462;-71
2022/07/19 11:45:20;;;;;;;1999.90;999.90;;;38.90;1.00;;;;;;5053982;28;20771;-71
2022/07/19 11:47:53;;;;;;;1999.90;999.90;;;39.00;1.00;;;;;;5053221;28;20865;-71
2022/07/19 11:50:21;;;;;;;1999.90;999.90;;;39.30;1.00;;;;;;5053995;28;20460;-71
2022/07/19 11:53:05;;;;;;;1999.90;999.90;;;39.50;1.00;;;;;;5053716;28;20428;-71
2022/07/19 11:55:40;;;;;;;1999.90;999.90;;;39.60;1.00;;;;;;5053633;28;20468;-71
2022/07/19 11:58:10;;;;;;;1999.90;999.90;;;39.60;1.00;;;;;;5053537;28;20414;-71
2022/07/19 12:00:38;;;;;;;1999.90;999.90;;;39.80;1.00;;;;;;5053520;28;20497;-71
2022/07/19 12:03:08;;;;;;;1999.90;999.90;;;39.80;1.00;;;;;;5053024;28;20414;-70